Time;durP1;ratioP1;P1;durP2;ratioP2;P2;SDS_P1;SDS_P2;PMS_P1;PMS_P2;Temp;Humidity;BMP_temperature;BMP_pressure;BME280_temperature;BME280_humidity;BME280_pressure;Samples;Min_cycle;Max_cycle;Signal;HPM_P1;HPM_P2
2022/09/10 00:00:04;;;;;;;;;;;12.60;99.90;;;;;;5035888;28;19916;-83
2022/09/10 00:02:31;;;;;;;;;;;12.60;99.90;;;;;;5035660;28;20260;-83
2022/09/10 00:04:59;;;;;;;;;;;12.50;99.90;;;;;;5035596;28;19909;-83
2022/09/10 00:07:25;;;;;;;;;;;12.50;99.90;;;;;;5053536;28;19909;-83
2022/09/10 00:09:50;;;;;;;;;;;12.50;99.90;;;;;;5053329;28;19920;-83
2022/09/10 00:12:15;;;;;;;;;;;12.50;99.90;;;;;;5035432;28;19909;-83
2022/09/10 00:14:41;;;;;;;;;;;12.50;99.90;;;;;;5035522;28;20272;-83
2022/09/10 00:17:06;;;;;;;;;;;12.40;99.90;;;;;;5035466;28;20003;-84
2022/09/10 00:19:34;;;;;;;;;;;12.50;99.90;;;;;;5052734;28;20290;-83
2022/09/10 00:21:59;;;;;;;;;;;12.50;99.90;;;;;;5035310;28;19959;-84
2022/09/10 00:24:25;;;;;;;;;;;12.50;99.90;;;;;;5035356;28;19913;-83
2022/09/10 00:26:50;;;;;;;;;;;12.40;99.90;;;;;;5035180;28;19913;-83
2022/09/10 00:29:17;;;;;;;;;;;12.40;99.90;;;;;;5035283;28;20007;-83
2022/09/10 00:31:43;;;;;;;;;;;12.50;99.90;;;;;;5034612;28;20000;-84
2022/09/10 00:34:10;;;;;;;;;;;12.40;99.90;;;;;;5053054;28;19935;-84
2022/09/10 00:36:38;;;;;;;;;;;12.30;99.90;;;;;;5052817;28;19984;-84
2022/09/10 00:39:05;;;;;;;;;;;12.30;99.90;;;;;;5035096;28;20431;-84
2022/09/10 00:41:31;;;;;;;;;;;12.30;99.90;;;;;;5053099;28;20292;-84
2022/09/10 00:43:58;;;;;;;;;;;12.40;99.90;;;;;;5053565;28;20120;-84
2022/09/10 00:46:38;;;;;;;;;;;12.40;99.90;;;;;;5035830;28;19923;-84
2022/09/10 00:49:16;;;;;;;;;;;12.50;99.90;;;;;;5034880;28;19916;-84
2022/09/10 00:51:42;;;;;;;;;;;12.50;99.90;;;;;;5035037;28;20356;-83
2022/09/10 00:54:08;;;;;;;;;;;12.50;99.90;;;;;;5034761;28;19975;-83
2022/09/10 00:56:34;;;;;;;;;;;12.50;99.90;;;;;;5034705;28;19951;-84
2022/09/10 00:59:00;;;;;;;;;;;12.40;99.90;;;;;;5034954;28;19916;-84
2022/09/10 01:01:26;;;;;;;;;;;12.40;99.90;;;;;;5034831;28;19916;-84
2022/09/10 01:03:52;;;;;;;;;;;12.40;99.90;;;;;;5034879;28;20283;-84
2022/09/10 01:06:17;;;;;;;;;;;12.40;99.90;;;;;;5034702;28;20375;-84
2022/09/10 01:08:43;;;;;;;;;;;12.40;99.90;;;;;;5052616;28;19913;-84
2022/09/10 01:11:11;;;;;;;;;;;12.40;99.90;;;;;;5052520;28;19916;-84
2022/09/10 01:13:39;;;;;;;;;;;12.40;99.90;;;;;;5052494;28;19909;-84
2022/09/10 01:16:14;;;;;;;;;;;12.40;99.90;;;;;;5052452;28;19935;-84
2022/09/10 01:18:42;;;;;;;;;;;12.40;99.90;;;;;;5034668;28;20368;-84
2022/09/10 01:21:16;;;;;;;;;;;12.40;99.90;;;;;;5034480;28;20307;-84
2022/09/10 01:23:58;;;;;;;;;;;12.40;99.90;;;;;;5034491;28;19935;-84
2022/09/10 01:26:42;;;;;;;;;;;12.40;99.90;;;;;;5034488;28;20046;-84
2022/09/10 01:29:09;;;;;;;;;;;12.40;99.90;;;;;;5034297;28;19915;-84
2022/09/10 01:31:38;;;;;;;;;;;12.50;99.90;;;;;;5034346;28;19909;-83
2022/09/10 01:34:15;;;;;;;;;;;12.60;99.90;;;;;;5034487;28;19916;-83
2022/09/10 01:36:42;;;;;;;;;;;12.70;99.90;;;;;;5052389;28;19923;-84
2022/09/10 01:39:07;;;;;;;;;;;12.60;99.90;;;;;;5034482;28;19909;-84
2022/09/10 01:41:33;;;;;;;;;;;12.60;99.90;;;;;;5034248;28;19959;-84
2022/09/10 01:44:06;;;;;;;;;;;12.60;99.90;;;;;;5035230;28;20273;-84
2022/09/10 01:46:40;;;;;;;;;;;12.60;99.90;;;;;;5038198;28;19916;-84
2022/09/10 01:49:15;;;;;;;;;;;12.60;99.90;;;;;;5038156;28;19909;-84
2022/09/10 01:52:03;;;;;;;;;;;12.60;99.90;;;;;;5038173;28;19909;-84
2022/09/10 01:54:39;;;;;;;;;;;12.60;99.90;;;;;;5027408;28;19909;-84
2022/09/10 01:57:10;;;;;;;;;;;12.60;99.90;;;;;;5037906;28;19912;-84
2022/09/10 01:59:40;;;;;;;;;;;12.60;99.90;;;;;;5055935;28;19908;-85
2022/09/10 02:02:13;;;;;;;;;;;12.60;99.90;;;;;;5038059;28;19936;-84
2022/09/10 02:04:39;;;;;;;;;;;12.60;99.90;;;;;;5055872;28;19931;-84
2022/09/10 02:07:05;;;;;;;;;;;12.60;99.90;;;;;;5037958;28;19909;-84
2022/09/10 02:09:31;;;;;;;;;;;12.50;99.90;;;;;;5037954;28;20383;-84
2022/09/10 02:11:56;;;;;;;;;;;12.60;99.90;;;;;;5037798;28;19909;-85
2022/09/10 02:14:22;;;;;;;;;;;12.60;99.90;;;;;;5037667;28;20406;-84
2022/09/10 02:16:56;;;;;;;;;;;12.60;99.90;;;;;;5055571;28;19920;-85
2022/09/10 02:19:22;;;;;;;;;;;12.60;99.90;;;;;;5037730;28;19955;-85
2022/09/10 02:21:47;;;;;;;;;;;12.60;99.90;;;;;;5037817;28;19909;-84
2022/09/10 02:24:13;;;;;;;;;;;12.50;99.90;;;;;;5055200;28;20303;-84
2022/09/10 02:26:39;;;;;;;;;;;12.50;99.90;;;;;;5055464;28;19996;-85
2022/09/10 02:29:05;;;;;;;;;;;12.50;99.90;;;;;;5037543;28;19935;-85
2022/09/10 02:31:31;;;;;;;;;;;12.50;99.90;;;;;;5037333;28;20331;-85
2022/09/10 02:33:57;;;;;;;;;;;12.50;99.90;;;;;;5037387;28;19955;-85
2022/09/10 02:36:24;;;;;;;;;;;12.40;99.90;;;;;;5037390;28;19912;-85
2022/09/10 02:38:55;;;;;;;;;;;12.50;99.90;;;;;;5037580;28;19913;-84
2022/09/10 02:41:24;;;;;;;;;;;12.40;99.90;;;;;;5037294;28;20043;-85
2022/09/10 02:43:50;;;;;;;;;;;12.40;99.90;;;;;;5037131;28;19909;-85
2022/09/10 02:46:15;;;;;;;;;;;12.40;99.90;;;;;;5037081;28;19931;-85
2022/09/10 02:48:41;;;;;;;;;;;12.40;99.90;;;;;;5037446;28;19909;-84
2022/09/10 02:51:06;;;;;;;;;;;12.40;99.90;;;;;;5037166;28;19913;-84
2022/09/10 02:53:32;;;;;;;;;;;12.40;99.90;;;;;;5037053;28;19931;-84
2022/09/10 02:55:58;;;;;;;;;;;12.40;99.90;;;;;;5036526;28;20335;-84
2022/09/10 02:58:23;;;;;;;;;;;12.40;99.90;;;;;;5037092;28;19909;-85
2022/09/10 03:00:49;;;;;;;;;;;12.40;99.90;;;;;;5054836;28;20003;-85
2022/09/10 03:03:16;;;;;;;;;;;12.40;99.90;;;;;;5036980;28;19959;-85
2022/09/10 03:05:42;;;;;;;;;;;12.40;99.90;;;;;;5055215;28;19920;-84
2022/09/10 03:08:08;;;;;;;;;;;12.40;99.90;;;;;;5036898;28;19909;-84
2022/09/10 03:10:34;;;;;;;;;;;12.40;99.90;;;;;;5036911;28;20288;-84
2022/09/10 03:12:59;;;;;;;;;;;12.40;99.90;;;;;;5037098;28;19913;-84
2022/09/10 03:15:25;;;;;;;;;;;12.40;99.90;;;;;;5037803;28;19943;-84
2022/09/10 03:17:50;;;;;;;;;;;12.40;99.90;;;;;;5038857;28;20084;-84
2022/09/10 03:20:17;;;;;;;;;;;12.40;99.90;;;;;;5066764;28;19907;-84
2022/09/10 03:22:43;;;;;;;;;;;12.40;99.90;;;;;;5049376;28;19944;-84
2022/09/10 03:25:08;;;;;;;;;;;12.50;99.90;;;;;;5036281;28;20349;-85
2022/09/10 03:27:34;;;;;;;;;;;12.50;99.90;;;;;;5036404;28;19944;-84
2022/09/10 03:29:59;;;;;;;;;;;12.50;99.90;;;;;;5036571;28;20364;-84
2022/09/10 03:32:25;;;;;;;;;;;12.50;99.90;;;;;;5053927;28;19913;-85
2022/09/10 03:34:50;;;;;;;;;;;12.50;99.90;;;;;;5054053;28;19920;-85
2022/09/10 03:37:16;;;;;;;;;;;12.60;99.90;;;;;;5036287;28;20256;-85
2022/09/10 03:39:42;;;;;;;;;;;12.50;99.90;;;;;;5054340;28;19909;-84
2022/09/10 03:42:07;;;;;;;;;;;12.50;99.90;;;;;;5054071;28;20383;-84
2022/09/10 03:44:33;;;;;;;;;;;12.40;99.90;;;;;;5036165;28;19909;-84
2022/09/10 03:46:59;;;;;;;;;;;12.50;99.90;;;;;;5036210;28;19912;-84
2022/09/10 03:49:25;;;;;;;;;;;12.50;99.90;;;;;;5036056;28;19909;-84
2022/09/10 03:51:50;;;;;;;;;;;12.40;99.90;;;;;;5035966;28;19912;-84
2022/09/10 03:54:16;;;;;;;;;;;12.40;99.90;;;;;;5035758;28;19909;-84
2022/09/10 03:56:42;;;;;;;;;;;12.40;99.90;;;;;;5053915;28;19912;-85
2022/09/10 03:59:08;;;;;;;;;;;12.40;99.90;;;;;;5035721;28;19908;-84
2022/09/10 04:01:33;;;;;;;;;;;12.30;99.90;;;;;;5035737;28;20354;-84
2022/09/10 04:03:59;;;;;;;;;;;12.30;99.90;;;;;;5035403;28;19944;-85
2022/09/10 04:06:24;;;;;;;;;;;12.20;99.90;;;;;;5034989;28;19909;-84
2022/09/10 04:08:53;;;;;;;;;;;12.10;99.90;;;;;;5035731;28;20413;-84
2022/09/10 04:11:19;;;;;;;;;;;12.00;99.90;;;;;;5035470;28;19913;-84
2022/09/10 04:13:47;;;;;;;;;;;12.00;99.90;;;;;;5035450;28;20367;-84
2022/09/10 04:16:12;;;;;;;;;;;12.00;99.90;;;;;;5035596;28;19912;-85
2022/09/10 04:18:38;;;;;;;;;;;11.90;99.90;;;;;;5035562;28;19916;-85
2022/09/10 04:21:03;;;;;;;;;;;12.00;99.90;;;;;;5053208;28;19908;-84
2022/09/10 04:23:29;;;;;;;;;;;11.90;99.90;;;;;;5035372;28;20005;-84
2022/09/10 04:25:55;;;;;;;;;;;12.00;99.90;;;;;;5035367;28;19916;-85
2022/09/10 04:28:22;;;;;;;;;;;12.00;99.90;;;;;;5035499;28;20319;-84
2022/09/10 04:30:47;;;;;;;;;;;12.00;99.90;;;;;;5035203;28;19915;-84
2022/09/10 04:33:13;;;;;;;;;;;12.10;99.90;;;;;;5034987;28;19909;-83
2022/09/10 04:35:38;;;;;;;;;;;12.10;99.90;;;;;;5034910;28;19921;-85
2022/09/10 04:38:04;;;;;;;;;;;12.20;99.90;;;;;;5035098;28;20360;-84
2022/09/10 04:40:30;;;;;;;;;;;12.20;99.90;;;;;;5035234;28;19908;-85
2022/09/10 04:42:55;;;;;;;;;;;12.20;99.90;;;;;;5034922;28;20368;-84
2022/09/10 04:45:21;;;;;;;;;;;12.20;99.90;;;;;;5034866;28;20004;-85
2022/09/10 04:47:46;;;;;;;;;;;12.30;99.90;;;;;;5052903;28;19916;-84
2022/09/10 04:50:14;;;;;;;;;;;12.30;99.90;;;;;;5035030;28;19923;-84
2022/09/10 04:52:40;;;;;;;;;;;12.30;99.90;;;;;;5034864;28;19909;-84
2022/09/10 04:55:05;;;;;;;;;;;12.30;99.90;;;;;;5034798;28;20283;-84
2022/09/10 04:57:31;;;;;;;;;;;12.30;99.90;;;;;;5052594;28;19923;-85
2022/09/10 04:59:57;;;;;;;;;;;12.30;99.90;;;;;;5035049;28;19908;-84
2022/09/10 05:02:22;;;;;;;;;;;12.30;99.90;;;;;;5052617;28;19909;-84
2022/09/10 05:04:49;;;;;;;;;;;12.30;99.90;;;;;;5034616;28;20279;-84
2022/09/10 05:07:15;;;;;;;;;;;12.30;99.90;;;;;;5052634;28;19909;-84
2022/09/10 05:09:40;;;;;;;;;;;12.40;99.90;;;;;;5034843;28;19919;-84
2022/09/10 05:12:06;;;;;;;;;;;12.30;99.90;;;;;;5034518;28;19951;-84
2022/09/10 05:14:32;;;;;;;;;;;12.30;99.90;;;;;;5034598;28;19943;-85
2022/09/10 05:16:58;;;;;;;;;;;12.40;99.90;;;;;;5035085;28;19966;-85
2022/09/10 05:19:24;;;;;;;;;;;12.40;99.90;;;;;;5041393;28;19913;-85
2022/09/10 05:21:49;;;;;;;;;;;12.40;99.90;;;;;;5041910;28;19909;-85
2022/09/10 05:24:15;;;;;;;;;;;12.40;99.90;;;;;;5042422;28;19920;-85
2022/09/10 05:26:41;;;;;;;;;;;12.50;99.90;;;;;;5042209;28;19959;-83
2022/09/10 05:29:06;;;;;;;;;;;12.50;99.90;;;;;;5059688;28;19932;-84
2022/09/10 05:31:33;;;;;;;;;;;12.50;99.90;;;;;;5059528;28;19948;-84
2022/09/10 05:34:00;;;;;;;;;;;12.50;99.90;;;;;;5059314;28;19913;-85
2022/09/10 05:36:30;;;;;;;;;;;12.50;99.90;;;;;;5059672;28;19913;-84
2022/09/10 05:38:59;;;;;;;;;;;12.50;99.90;;;;;;5042013;28;19909;-84
2022/09/10 05:41:26;;;;;;;;;;;12.60;99.90;;;;;;5041547;28;19913;-84
2022/09/10 05:43:51;;;;;;;;;;;12.60;99.90;;;;;;5041887;28;19913;-85
2022/09/10 05:46:17;;;;;;;;;;;12.70;99.90;;;;;;5041564;28;19909;-85
2022/09/10 05:48:42;;;;;;;;;;;12.70;99.90;;;;;;5041665;28;19913;-85
2022/09/10 05:51:08;;;;;;;;;;;12.70;99.90;;;;;;5059136;28;20026;-85
2022/09/10 05:53:34;;;;;;;;;;;12.70;99.90;;;;;;5059476;28;19908;-85
2022/09/10 05:55:59;;;;;;;;;;;12.70;99.90;;;;;;5060006;28;20003;-85
2022/09/10 05:58:26;;;;;;;;;;;12.70;99.90;;;;;;5041617;28;20058;-85
2022/09/10 06:00:53;;;;;;;;;;;12.70;99.90;;;;;;5041411;28;19916;-85
2022/09/10 06:03:19;;;;;;;;;;;12.70;99.90;;;;;;5041309;28;19909;-85
2022/09/10 06:05:51;;;;;;;;;;;12.70;99.90;;;;;;5060268;28;19909;-86
2022/09/10 06:08:17;;;;;;;;;;;12.70;99.90;;;;;;5041258;28;19915;-85
2022/09/10 06:10:52;;;;;;;;;;;12.80;99.90;;;;;;5041113;28;20008;-85
2022/09/10 06:13:19;;;;;;;;;;;12.80;99.90;;;;;;5040892;28;19908;-85
2022/09/10 06:15:45;;;;;;;;;;;12.90;99.90;;;;;;5059798;28;19928;-85
2022/09/10 06:18:10;;;;;;;;;;;12.80;99.90;;;;;;5041199;28;19909;-84
2022/09/10 06:20:36;;;;;;;;;;;12.90;99.90;;;;;;5040932;28;19909;-84
2022/09/10 06:23:03;;;;;;;;;;;12.90;99.90;;;;;;5043141;28;19920;-84
2022/09/10 06:25:28;;;;;;;;;;;13.00;99.90;;;;;;5059863;28;20056;-85
2022/09/10 06:27:53;;;;;;;;;;;13.00;99.90;;;;;;5049248;28;20416;-85
2022/09/10 06:30:19;;;;;;;;;;;13.10;99.90;;;;;;5059372;28;19908;-85
2022/09/10 06:32:45;;;;;;;;;;;13.10;99.90;;;;;;5071523;28;19909;-84
2022/09/10 06:35:10;;;;;;;;;;;13.20;99.90;;;;;;5038681;28;19909;-85
2022/09/10 06:37:36;;;;;;;;;;;13.20;99.90;;;;;;5056190;28;19962;-84
2022/09/10 06:40:01;;;;;;;;;;;13.20;99.90;;;;;;5038420;28;20455;-84
2022/09/10 06:42:27;;;;;;;;;;;13.30;99.90;;;;;;5056113;28;19909;-84
2022/09/10 06:44:52;;;;;;;;;;;13.30;99.90;;;;;;5055582;28;19909;-84
2022/09/10 06:47:18;;;;;;;;;;;13.40;99.90;;;;;;5038216;28;20315;-84
2022/09/10 06:49:43;;;;;;;;;;;13.50;99.90;;;;;;5037588;28;19913;-85
2022/09/10 06:52:10;;;;;;;;;;;13.60;99.90;;;;;;5037709;28;19909;-84
2022/09/10 06:54:36;;;;;;;;;;;13.70;99.90;;;;;;5037585;28;19908;-84
2022/09/10 06:57:03;;;;;;;;;;;13.70;99.90;;;;;;5037658;28;20016;-84
2022/09/10 06:59:30;;;;;;;;;;;13.70;99.90;;;;;;5037463;28;19916;-84
2022/09/10 07:01:56;;;;;;;;;;;13.70;99.90;;;;;;5037567;28;19908;-85
2022/09/10 07:04:21;;;;;;;;;;;13.80;99.90;;;;;;5037795;28;19920;-84
2022/09/10 07:06:47;;;;;;;;;;;13.80;99.90;;;;;;5056805;28;20007;-84
2022/09/10 07:09:13;;;;;;;;;;;13.90;99.90;;;;;;5039512;28;19916;-85
2022/09/10 07:11:38;;;;;;;;;;;14.10;99.90;;;;;;5039669;28;20012;-85
2022/09/10 07:14:04;;;;;;;;;;;14.20;99.90;;;;;;5037767;28;19909;-85
2022/09/10 07:16:29;;;;;;;;;;;14.50;99.90;;;;;;5037184;28;19913;-85
2022/09/10 07:18:56;;;;;;;;;;;14.90;99.90;;;;;;5036986;28;19987;-85
2022/09/10 07:21:24;;;;;;;;;;;15.40;99.90;;;;;;5036589;28;19913;-85
2022/09/10 07:23:53;;;;;;;;;;;15.60;99.90;;;;;;5037001;28;19909;-84
2022/09/10 07:26:18;;;;;;;;;;;16.00;99.90;;;;;;5036845;28;20379;-84
2022/09/10 07:28:44;;;;;;;;;;;16.10;99.90;;;;;;5054630;28;19908;-85
2022/09/10 07:31:12;;;;;;;;;;;15.80;99.90;;;;;;5036524;28;19913;-85
2022/09/10 07:33:38;;;;;;;;;;;15.50;99.90;;;;;;5036753;28;19909;-84
2022/09/10 07:36:05;;;;;;;;;;;15.30;99.90;;;;;;5036816;28;20007;-85
2022/09/10 07:38:31;;;;;;;;;;;15.10;99.90;;;;;;5036579;28;19915;-84
2022/09/10 07:40:59;;;;;;;;;;;15.20;99.90;;;;;;5037206;28;20007;-84
2022/09/10 07:43:25;;;;;;;;;;;15.40;99.90;;;;;;5036474;28;19909;-84
2022/09/10 07:45:50;;;;;;;;;;;15.60;99.90;;;;;;5037002;28;19962;-84
2022/09/10 07:48:16;;;;;;;;;;;15.80;99.90;;;;;;5055924;28;19909;-85
2022/09/10 07:50:42;;;;;;;;;;;16.00;99.90;;;;;;5037964;28;19908;-84
2022/09/10 07:53:07;;;;;;;;;;;15.60;99.90;;;;;;5055925;28;19909;-85
2022/09/10 07:55:33;;;;;;;;;;;16.30;99.90;;;;;;5019195;28;20513;-83
2022/09/10 07:57:58;;;;;;;;;;;18.80;99.90;;;;;;5034559;28;20349;-84
2022/09/10 08:00:24;;;;;;;;;;;20.10;99.90;;;;;;5033332;28;19914;-87
2022/09/10 08:02:50;;;;;;;;;;;21.00;99.90;;;;;;5037044;28;20001;-85
2022/09/10 08:05:15;;;;;;;;;;;21.20;99.90;;;;;;5037096;28;19915;-85
2022/09/10 08:07:41;;;;;;;;;;;21.90;99.90;;;;;;5036859;28;19913;-85
2022/09/10 08:10:08;;;;;;;;;;;21.70;99.90;;;;;;5039071;28;19945;-84
2022/09/10 08:12:38;;;;;;;;;;;21.60;99.90;;;;;;5041429;28;19908;-84
2022/09/10 08:15:07;;;;;;;;;;;19.00;99.90;;;;;;5058459;28;19909;-84
2022/09/10 08:17:33;;;;;;;;;;;19.90;99.90;;;;;;5046886;28;19921;-83
2022/09/10 08:19:58;;;;;;;;;;;21.80;99.90;;;;;;5031819;28;20382;-84
2022/09/10 08:22:24;;;;;;;;;;;22.80;99.90;;;;;;5036104;28;20457;-84
2022/09/10 08:24:49;;;;;;;;;;;22.50;97.70;;;;;;5035546;28;19916;-84
2022/09/10 08:27:15;;;;;;;;;;;22.00;99.20;;;;;;5035651;28;19932;-86
2022/09/10 08:29:41;;;;;;;;;;;22.20;99.70;;;;;;5054763;28;19917;-84
2022/09/10 08:32:07;;;;;;;;;;;22.90;98.10;;;;;;5036397;28;19924;-87
2022/09/10 08:34:33;;;;;;;;;;;21.40;99.20;;;;;;5036335;28;19931;-86
2022/09/10 08:36:58;;;;;;;;;;;20.10;99.90;;;;;;5035488;28;19956;-86
2022/09/10 08:39:24;;;;;;;;;;;19.40;99.90;;;;;;5035607;28;19909;-85
2022/09/10 08:41:55;;;;;;;;;;;19.50;99.90;;;;;;5036023;28;19909;-85
2022/09/10 08:44:39;;;;;;;;;;;19.10;99.90;;;;;;5036941;28;19920;-84
2022/09/10 08:47:12;;;;;;;;;;;18.70;99.90;;;;;;5036710;28;19909;-84
2022/09/10 08:49:50;;;;;;;;;;;18.50;99.90;;;;;;5035752;28;19966;-86
2022/09/10 08:52:30;;;;;;;;;;;17.70;99.90;;;;;;5034993;28;19991;-85
2022/09/10 08:54:58;;;;;;;;;;;17.70;99.90;;;;;;5035083;28;20299;-84
2022/09/10 08:57:30;;;;;;;;;;;18.00;99.90;;;;;;5037974;28;19979;-84
2022/09/10 08:59:56;;;;;;;;;;;17.90;99.90;;;;;;5054680;28;19955;-84
2022/09/10 09:02:30;;;;;;;;;;;18.00;99.90;;;;;;5036896;28;19966;-84
2022/09/10 09:05:16;;;;;;;;;;;18.10;99.90;;;;;;5054897;28;19908;-84
2022/09/10 09:07:42;;;;;;;;;;;18.30;99.90;;;;;;5036753;28;20430;-85
2022/09/10 09:10:33;;;;;;;;;;;17.90;99.90;;;;;;5036792;28;19944;-83
2022/09/10 09:13:05;;;;;;;;;;;17.50;99.90;;;;;;5050709;28;19915;-84
2022/09/10 09:15:36;;;;;;;;;;;17.10;99.90;;;;;;5055159;28;19913;-84
2022/09/10 09:18:21;;;;;;;;;;;16.90;99.90;;;;;;5054689;28;20007;-84
2022/09/10 09:20:53;;;;;;;;;;;16.80;99.90;;;;;;5053093;28;19913;-84
2022/09/10 09:23:20;;;;;;;;;;;16.90;99.90;;;;;;5037173;28;20367;-84
2022/09/10 09:26:02;;;;;;;;;;;16.90;99.90;;;;;;5036662;28;20733;-84
2022/09/10 09:28:34;;;;;;;;;;;16.80;99.90;;;;;;5055453;28;19909;-84
2022/09/10 09:31:04;;;;;;;;;;;16.70;99.90;;;;;;5035409;28;20350;-84
2022/09/10 09:33:31;;;;;;;;;;;16.90;99.90;;;;;;5033937;28;20008;-84
2022/09/10 09:36:01;;;;;;;;;;;17.10;99.90;;;;;;5051849;28;19916;-85
2022/09/10 09:38:38;;;;;;;;;;;17.10;99.90;;;;;;5034517;28;19916;-85
2022/09/10 09:41:06;;;;;;;;;;;16.90;99.90;;;;;;5034670;28;20371;-84
2022/09/10 09:43:57;;;;;;;;;;;16.90;99.90;;;;;;5051740;28;19920;-85
2022/09/10 09:46:24;;;;;;;;;;;17.10;99.90;;;;;;5034219;28;19915;-84
2022/09/10 09:48:54;;;;;;;;;;;17.40;99.90;;;;;;5051806;28;20386;-85
2022/09/10 09:51:20;;;;;;;;;;;17.60;99.90;;;;;;5033850;28;19913;-84
2022/09/10 09:53:46;;;;;;;;;;;17.50;99.90;;;;;;5051476;28;20437;-85
2022/09/10 09:56:15;;;;;;;;;;;17.50;99.90;;;;;;5051840;28;19913;-85
2022/09/10 09:58:45;;;;;;;;;;;17.40;99.90;;;;;;5034075;28;19909;-84
2022/09/10 10:01:12;;;;;;;;;;;17.40;99.90;;;;;;5034009;28;19962;-85
2022/09/10 10:03:41;;;;;;;;;;;17.60;99.90;;;;;;5051799;28;19916;-85
2022/09/10 10:06:07;;;;;;;;;;;17.70;99.90;;;;;;5054582;28;20399;-85
2022/09/10 10:08:38;;;;;;;;;;;17.80;99.90;;;;;;5043229;28;19988;-83
2022/09/10 10:11:04;;;;;;;;;;;17.70;99.90;;;;;;5039236;28;20370;-83
2022/09/10 10:13:37;;;;;;;;;;;17.30;99.90;;;;;;5055054;28;19916;-84
2022/09/10 10:16:21;;;;;;;;;;;17.20;99.90;;;;;;5037423;28;19913;-84
2022/09/10 10:18:46;;;;;;;;;;;17.30;99.90;;;;;;5037537;28;19992;-85
2022/09/10 10:21:14;;;;;;;;;;;17.40;99.90;;;;;;5037283;28;19936;-85
2022/09/10 10:23:39;;;;;;;;;;;18.20;99.90;;;;;;5037157;28;19970;-84
2022/09/10 10:26:20;;;;;;;;;;;19.10;99.90;;;;;;5037198;28;19931;-85
2022/09/10 10:28:48;;;;;;;;;;;19.80;99.90;;;;;;5055073;28;19909;-84
2022/09/10 10:31:14;;;;;;;;;;;21.00;99.90;;;;;;5037396;28;19908;-85
2022/09/10 10:33:47;;;;;;;;;;;22.50;95.10;;;;;;5037188;28;19909;-84
2022/09/10 10:36:26;;;;;;;;;;;24.70;90.40;;;;;;5037143;28;19943;-84
2022/09/10 10:39:12;;;;;;;;;;;25.40;82.90;;;;;;5055157;28;19909;-85
2022/09/10 10:41:42;;;;;;;;;;;22.00;91.40;;;;;;5001456;28;19916;-85
2022/09/10 10:44:43;;;;;;;;;;;21.10;94.80;;;;;;5034325;28;20047;-83
2022/09/10 10:47:22;;;;;;;;;;;21.40;95.00;;;;;;4975033;28;19949;-84
2022/09/10 10:49:54;;;;;;;;;;;20.00;96.60;;;;;;5020684;28;20018;-85
2022/09/10 10:52:39;;;;;;;;;;;22.60;92.20;;;;;;5036900;28;19913;-84
2022/09/10 10:55:13;;;;;;;;;;;24.10;83.50;;;;;;5054634;28;20352;-84
2022/09/10 10:57:39;;;;;;;;;;;26.00;75.70;;;;;;5036524;28;20357;-84
2022/09/10 11:00:08;;;;;;;;;;;26.40;71.70;;;;;;5036840;28;19916;-83
2022/09/10 11:02:34;;;;;;;;;;;22.90;78.70;;;;;;5036515;28;19908;-84
2022/09/10 11:05:03;;;;;;;;;;;21.10;86.50;;;;;;5036527;28;19909;-84
2022/09/10 11:07:33;;;;;;;;;;;20.00;92.50;;;;;;5036729;28;19915;-83
2022/09/10 11:10:02;;;;;;;;;;;19.40;93.80;;;;;;5037685;28;19908;-83
2022/09/10 11:12:31;;;;;;;;;;;19.20;94.20;;;;;;5054405;28;19967;-83
2022/09/10 11:14:56;;;;;;;;;;;18.90;93.90;;;;;;5036103;28;20588;-84
2022/09/10 11:17:27;;;;;;;;;;;20.40;93.80;;;;;;5053969;28;20389;-84
2022/09/10 11:20:25;;;;;;;;;;;20.30;93.40;;;;;;5036252;28;19909;-85
2022/09/10 11:22:54;;;;;;;;;;;19.30;94.70;;;;;;5012009;28;19909;-84
2022/09/10 11:25:23;;;;;;;;;;;18.80;96.60;;;;;;5036275;28;19916;-84
2022/09/10 11:27:55;;;;;;;;;;;20.40;97.10;;;;;;5036358;28;19909;-84
2022/09/10 11:30:21;;;;;;;;;;;20.60;92.30;;;;;;5036580;28;19931;-84
2022/09/10 11:32:58;;;;;;;;;;;22.70;86.80;;;;;;5036553;28;19967;-85
2022/09/10 11:35:32;;;;;;;;;;;25.90;79.90;;;;;;5037404;28;19952;-84
2022/09/10 11:38:06;;;;;;;;;;;27.60;70.80;;;;;;5038430;28;19943;-85
2022/09/10 11:40:32;;;;;;;;;;;28.00;67.40;;;;;;5031740;28;19919;-84
2022/09/10 11:43:01;;;;;;;;;;;28.40;67.40;;;;;;5023583;28;19909;-85
2022/09/10 11:45:38;;;;;;;;;;;26.20;68.30;;;;;;5047956;28;19923;-85
2022/09/10 11:48:13;;;;;;;;;;;24.10;73.00;;;;;;5040186;28;19954;-85
2022/09/10 11:50:43;;;;;;;;;;;22.50;80.90;;;;;;5054798;28;19909;-85
2022/09/10 11:53:17;;;;;;;;;;;24.50;74.60;;;;;;5036876;28;19913;-86
2022/09/10 11:55:56;;;;;;;;;;;21.60;81.60;;;;;;5036994;28;19913;-85
2022/09/10 11:58:21;;;;;;;;;;;22.80;83.10;;;;;;5036630;28;20008;-84
2022/09/10 12:01:01;;;;;;;;;;;23.70;72.90;;;;;;5037511;28;19955;-86
2022/09/10 12:03:40;;;;;;;;;;;21.90;80.50;;;;;;5036361;28;19915;-84
2022/09/10 12:06:12;;;;;;;;;;;20.90;84.40;;;;;;5054906;28;19909;-85
2022/09/10 12:09:00;;;;;;;;;;;21.70;84.60;;;;;;5036274;28;19915;-85
2022/09/10 12:11:41;;;;;;;;;;;22.00;86.50;;;;;;5036726;28;19909;-86
2022/09/10 12:14:11;;;;;;;;;;;22.10;83.10;;;;;;5036509;28;20359;-84
2022/09/10 12:16:42;;;;;;;;;;;21.90;85.00;;;;;;5037234;28;19919;-85
2022/09/10 12:19:13;;;;;;;;;;;21.70;85.80;;;;;;5032956;28;19959;-85
2022/09/10 12:21:41;;;;;;;;;;;21.70;86.20;;;;;;5036234;28;19955;-86
2022/09/10 12:24:36;;;;;;;;;;;21.20;86.20;;;;;;5053468;28;19916;-85
2022/09/10 12:27:04;;;;;;;;;;;21.30;86.80;;;;;;5022592;28;20395;-85
2022/09/10 12:29:32;;;;;;;;;;;20.90;88.10;;;;;;5035700;28;19909;-85
2022/09/10 12:32:06;;;;;;;;;;;20.10;88.90;;;;;;5035672;28;19945;-86
2022/09/10 12:34:32;;;;;;;;;;;20.20;86.60;;;;;;5035806;28;20383;-85
2022/09/10 12:36:57;;;;;;;;;;;19.70;89.40;;;;;;5036159;28;19959;-85
2022/09/10 12:39:24;;;;;;;;;;;19.70;88.90;;;;;;5054789;28;19909;-84
2022/09/10 12:41:49;;;;;;;;;;;19.70;87.50;;;;;;5035579;28;19908;-85
2022/09/10 12:44:33;;;;;;;;;;;20.00;90.00;;;;;;5035053;28;20269;-84
2022/09/10 12:47:17;;;;;;;;;;;19.90;88.30;;;;;;5053246;28;19909;-85
2022/09/10 12:49:45;;;;;;;;;;;19.60;88.50;;;;;;5055528;28;19917;-87
2022/09/10 12:52:12;;;;;;;;;;;19.30;89.80;;;;;;5023221;28;19921;-84
2022/09/10 12:54:52;;;;;;;;;;;19.20;90.10;;;;;;5050633;28;19908;-87
2022/09/10 12:57:49;;;;;;;;;;;19.30;90.60;;;;;;5036680;28;19979;-87
2022/09/10 13:00:21;;;;;;;;;;;19.10;92.10;;;;;;5029998;28;19920;-86
2022/09/10 13:02:50;;;;;;;;;;;19.30;92.90;;;;;;5054111;28;19909;-86
2022/09/10 13:05:22;;;;;;;;;;;19.00;92.90;;;;;;5036321;28;19916;-85
2022/09/10 13:07:55;;;;;;;;;;;18.80;93.70;;;;;;5037960;28;19909;-86
2022/09/10 13:10:25;;;;;;;;;;;18.70;94.40;;;;;;5050400;28;19983;-87
2022/09/10 13:12:54;;;;;;;;;;;19.10;94.00;;;;;;5061555;28;19935;-87
2022/09/10 13:15:21;;;;;;;;;;;19.30;94.00;;;;;;5035362;28;19909;-85
2022/09/10 13:17:47;;;;;;;;;;;20.20;94.60;;;;;;5035047;28;19913;-84
2022/09/10 13:20:13;;;;;;;;;;;20.50;92.50;;;;;;5035583;28;19916;-86
2022/09/10 13:22:54;;;;;;;;;;;21.00;91.20;;;;;;5052730;28;19908;-85
2022/09/10 13:25:25;;;;;;;;;;;21.00;91.50;;;;;;5035031;28;19924;-85
2022/09/10 13:27:52;;;;;;;;;;;20.80;92.60;;;;;;5035218;28;19908;-86
2022/09/10 13:30:19;;;;;;;;;;;20.90;92.50;;;;;;5035043;28;19964;-85
2022/09/10 13:32:44;;;;;;;;;;;20.60;93.00;;;;;;5035199;28;19909;-86
2022/09/10 13:35:10;;;;;;;;;;;20.50;92.50;;;;;;5062375;28;19915;-86
2022/09/10 13:37:45;;;;;;;;;;;20.40;91.70;;;;;;5060543;28;19909;-87
2022/09/10 13:40:17;;;;;;;;;;;20.50;91.90;;;;;;5063372;28;19897;-86
2022/09/10 13:42:48;;;;;;;;;;;20.30;91.50;;;;;;5081012;28;19913;-85
2022/09/10 13:45:26;;;;;;;;;;;20.10;91.40;;;;;;5073789;28;19908;-83
2022/09/10 13:47:59;;;;;;;;;;;19.80;93.80;;;;;;5046813;28;19919;-84
2022/09/10 13:50:27;;;;;;;;;;;19.50;95.00;;;;;;5038209;28;19939;-85
2022/09/10 13:52:55;;;;;;;;;;;19.40;93.50;;;;;;5056321;28;19955;-84
2022/09/10 13:55:25;;;;;;;;;;;19.20;93.80;;;;;;5038306;28;19967;-85
2022/09/10 13:57:53;;;;;;;;;;;19.00;95.40;;;;;;5056151;28;19966;-84
2022/09/10 14:00:23;;;;;;;;;;;18.80;94.70;;;;;;5038177;28;19908;-84
2022/09/10 14:02:54;;;;;;;;;;;18.70;94.60;;;;;;5038152;28;20284;-85
2022/09/10 14:05:28;;;;;;;;;;;18.70;95.20;;;;;;5057207;28;19959;-85
2022/09/10 14:07:54;;;;;;;;;;;18.90;95.60;;;;;;5038699;28;19909;-86
2022/09/10 14:10:20;;;;;;;;;;;19.20;94.20;;;;;;5055919;28;19915;-86
2022/09/10 14:12:47;;;;;;;;;;;19.30;93.90;;;;;;5037694;28;20279;-86
2022/09/10 14:15:15;;;;;;;;;;;19.20;94.40;;;;;;5054004;28;19909;-85
2022/09/10 14:17:53;;;;;;;;;;;18.80;94.40;;;;;;5048191;28;19912;-85
2022/09/10 14:20:25;;;;;;;;;;;18.50;95.20;;;;;;5037626;28;19971;-85
2022/09/10 14:22:58;;;;;;;;;;;18.40;95.50;;;;;;5037180;28;19909;-86
2022/09/10 14:25:30;;;;;;;;;;;18.20;97.80;;;;;;5037198;28;19917;-85